sensor_id;sensor_type;location;lat;lon;timestamp;P1;durP1;ratioP1;P2;durP2;ratioP2
58306;SDS011;44116;50.884;4.768;2023-03-01T00:00:01;15.5;;;10.3;;
58306;SDS011;44116;50.884;4.768;2023-03-01T00:02:00;14.6;;;9.9;;
58306;SDS011;44116;50.884;4.768;2023-03-01T00:04:00;15.8;;;10.8;;
58306;SDS011;44116;50.884;4.768;2023-03-01T00:05:59;13.8;;;10.4;;
58306;SDS011;44116;50.884;4.768;2023-03-01T00:07:58;15.9;;;10.7;;
58306;SDS011;44116;50.884;4.768;2023-03-01T00:09:58;15.4;;;10.0;;
58306;SDS011;44116;50.884;4.768;2023-03-01T00:11:57;14.3;;;9.9;;
58306;SDS011;44116;50.884;4.768;2023-03-01T00:13:58;17.3;;;10.4;;
58306;SDS011;44116;50.884;4.768;2023-03-01T00:15:56;13.5;;;9.6;;
58306;SDS011;44116;50.884;4.768;2023-03-01T00:17:55;15.6;;;9.9;;
58306;SDS011;44116;50.884;4.768;2023-03-01T00:19:55;17.0;;;10.5;;
58306;SDS011;44116;50.884;4.768;2023-03-01T00:21:55;14.2;;;9.9;;
58306;SDS011;44116;50.884;4.768;2023-03-01T00:23:54;14.9;;;9.8;;
58306;SDS011;44116;50.884;4.768;2023-03-01T00:27:53;13.6;;;9.9;;
58306;SDS011;44116;50.884;4.768;2023-03-01T00:29:52;15.4;;;10.5;;
58306;SDS011;44116;50.884;4.768;2023-03-01T00:31:52;14.3;;;9.8;;
58306;SDS011;44116;50.884;4.768;2023-03-01T00:33:53;13.3;;;9.3;;
58306;SDS011;44116;50.884;4.768;2023-03-01T00:35:50;14.6;;;9.7;;
58306;SDS011;44116;50.884;4.768;2023-03-01T00:47:48;13.6;;;9.6;;
58306;SDS011;44116;50.884;4.768;2023-03-01T00:49:46;16.0;;;9.7;;
58306;SDS011;44116;50.884;4.768;2023-03-01T00:51:46;14.7;;;10.0;;
58306;SDS011;44116;50.884;4.768;2023-03-01T00:53:46;15.2;;;9.8;;
58306;SDS011;44116;50.884;4.768;2023-03-01T00:55:45;13.5;;;9.5;;
58306;SDS011;44116;50.884;4.768;2023-03-01T00:57:44;14.2;;;9.8;;
58306;SDS011;44116;50.884;4.768;2023-03-01T00:59:44;15.7;;;10.0;;
58306;SDS011;44116;50.884;4.768;2023-03-01T01:01:43;15.3;;;9.9;;
58306;SDS011;44116;50.884;4.768;2023-03-01T01:03:44;16.3;;;10.2;;
58306;SDS011;44116;50.884;4.768;2023-03-01T01:05:42;13.8;;;9.9;;
58306;SDS011;44116;50.884;4.768;2023-03-01T01:07:41;13.1;;;9.6;;
58306;SDS011;44116;50.884;4.768;2023-03-01T01:09:41;16.1;;;10.0;;
58306;SDS011;44116;50.884;4.768;2023-03-01T01:11:40;13.9;;;10.1;;
58306;SDS011;44116;50.884;4.768;2023-03-01T01:13:40;16.7;;;9.4;;
58306;SDS011;44116;50.884;4.768;2023-03-01T01:15:39;13.7;;;9.2;;
58306;SDS011;44116;50.884;4.768;2023-03-01T01:19:38;13.3;;;9.7;;
58306;SDS011;44116;50.884;4.768;2023-03-01T01:21:37;13.4;;;9.9;;
58306;SDS011;44116;50.884;4.768;2023-03-01T01:23:38;12.6;;;9.8;;
58306;SDS011;44116;50.884;4.768;2023-03-01T01:25:36;14.5;;;9.5;;
58306;SDS011;44116;50.884;4.768;2023-03-01T01:27:35;12.7;;;9.3;;
58306;SDS011;44116;50.884;4.768;2023-03-01T01:29:35;16.3;;;9.8;;
58306;SDS011;44116;50.884;4.768;2023-03-01T01:31:35;16.1;;;10.1;;
58306;SDS011;44116;50.884;4.768;2023-03-01T01:33:35;14.8;;;9.7;;
58306;SDS011;44116;50.884;4.768;2023-03-01T01:35:33;15.1;;;10.2;;
58306;SDS011;44116;50.884;4.768;2023-03-01T01:37:32;14.7;;;9.6;;
58306;SDS011;44116;50.884;4.768;2023-03-01T01:39:32;15.6;;;9.9;;
58306;SDS011;44116;50.884;4.768;2023-03-01T01:41:31;12.4;;;9.5;;
58306;SDS011;44116;50.884;4.768;2023-03-01T01:43:33;13.3;;;9.9;;
58306;SDS011;44116;50.884;4.768;2023-03-01T01:47:30;14.7;;;9.6;;
58306;SDS011;44116;50.884;4.768;2023-03-01T01:49:32;15.7;;;10.2;;
58306;SDS011;44116;50.884;4.768;2023-03-01T01:51:32;14.9;;;9.5;;
58306;SDS011;44116;50.884;4.768;2023-03-01T01:53:28;15.1;;;10.2;;
58306;SDS011;44116;50.884;4.768;2023-03-01T01:55:27;14.1;;;9.3;;
58306;SDS011;44116;50.884;4.768;2023-03-01T01:57:31;14.7;;;9.6;;
58306;SDS011;44116;50.884;4.768;2023-03-01T01:59:28;15.8;;;9.5;;
58306;SDS011;44116;50.884;4.768;2023-03-01T02:01:25;13.1;;;9.1;;
58306;SDS011;44116;50.884;4.768;2023-03-01T02:03:28;14.7;;;9.3;;
58306;SDS011;44116;50.884;4.768;2023-03-01T02:05:29;14.3;;;9.8;;
58306;SDS011;44116;50.884;4.768;2023-03-01T02:07:24;13.8;;;9.6;;
58306;SDS011;44116;50.884;4.768;2023-03-01T02:09:23;13.6;;;9.2;;
58306;SDS011;44116;50.884;4.768;2023-03-01T02:11:23;15.4;;;9.7;;
58306;SDS011;44116;50.884;4.768;2023-03-01T02:15:21;15.6;;;10.0;;
58306;SDS011;44116;50.884;4.768;2023-03-01T02:17:21;14.6;;;9.4;;
58306;SDS011;44116;50.884;4.768;2023-03-01T02:19:31;15.2;;;9.7;;
58306;SDS011;44116;50.884;4.768;2023-03-01T02:21:29;14.6;;;9.6;;
58306;SDS011;44116;50.884;4.768;2023-03-01T02:23:19;15.6;;;10.3;;
58306;SDS011;44116;50.884;4.768;2023-03-01T02:25:25;13.4;;;9.7;;
58306;SDS011;44116;50.884;4.768;2023-03-01T02:27:21;15.5;;;9.6;;
58306;SDS011;44116;50.884;4.768;2023-03-01T02:29:17;12.8;;;9.1;;
58306;SDS011;44116;50.884;4.768;2023-03-01T02:31:19;15.3;;;9.9;;
58306;SDS011;44116;50.884;4.768;2023-03-01T02:33:16;14.7;;;9.5;;
58306;SDS011;44116;50.884;4.768;2023-03-01T02:37:16;14.4;;;9.4;;
58306;SDS011;44116;50.884;4.768;2023-03-01T02:39:18;14.7;;;9.9;;
58306;SDS011;44116;50.884;4.768;2023-03-01T02:43:14;14.1;;;9.3;;
58306;SDS011;44116;50.884;4.768;2023-03-01T02:45:13;15.8;;;9.6;;
58306;SDS011;44116;50.884;4.768;2023-03-01T02:47:12;15.4;;;9.9;;
58306;SDS011;44116;50.884;4.768;2023-03-01T02:49:19;14.5;;;10.4;;
58306;SDS011;44116;50.884;4.768;2023-03-01T02:51:21;13.9;;;9.7;;
58306;SDS011;44116;50.884;4.768;2023-03-01T02:53:14;14.7;;;10.0;;
58306;SDS011;44116;50.884;4.768;2023-03-01T02:55:11;13.6;;;9.7;;
58306;SDS011;44116;50.884;4.768;2023-03-01T02:57:09;15.0;;;9.9;;
58306;SDS011;44116;50.884;4.768;2023-03-01T02:59:09;13.3;;;9.5;;
58306;SDS011;44116;50.884;4.768;2023-03-01T03:01:08;15.3;;;10.0;;
58306;SDS011;44116;50.884;4.768;2023-03-01T03:03:07;12.9;;;9.7;;
58306;SDS011;44116;50.884;4.768;2023-03-01T03:05:10;16.7;;;9.8;;
58306;SDS011;44116;50.884;4.768;2023-03-01T03:07:06;13.6;;;9.6;;
58306;SDS011;44116;50.884;4.768;2023-03-01T03:09:05;13.7;;;9.2;;
58306;SDS011;44116;50.884;4.768;2023-03-01T03:11:04;13.8;;;9.0;;
58306;SDS011;44116;50.884;4.768;2023-03-01T03:13:07;14.4;;;9.9;;
58306;SDS011;44116;50.884;4.768;2023-03-01T03:15:05;14.0;;;9.1;;
58306;SDS011;44116;50.884;4.768;2023-03-01T03:17:03;16.3;;;9.8;;
58306;SDS011;44116;50.884;4.768;2023-03-01T03:19:02;14.9;;;9.5;;
58306;SDS011;44116;50.884;4.768;2023-03-01T03:21:01;14.6;;;9.4;;
58306;SDS011;44116;50.884;4.768;2023-03-01T03:23:01;14.7;;;9.8;;
58306;SDS011;44116;50.884;4.768;2023-03-01T03:25:00;14.9;;;9.5;;
58306;SDS011;44116;50.884;4.768;2023-03-01T03:27:00;14.1;;;9.7;;
58306;SDS011;44116;50.884;4.768;2023-03-01T03:28:59;14.0;;;9.9;;
58306;SDS011;44116;50.884;4.768;2023-03-01T03:30:59;12.4;;;9.6;;
58306;SDS011;44116;50.884;4.768;2023-03-01T03:32:59;14.0;;;9.7;;
58306;SDS011;44116;50.884;4.768;2023-03-01T03:36:57;15.3;;;9.9;;
58306;SDS011;44116;50.884;4.768;2023-03-01T03:38:56;13.0;;;9.8;;
58306;SDS011;44116;50.884;4.768;2023-03-01T03:41:01;15.1;;;10.1;;
58306;SDS011;44116;50.884;4.768;2023-03-01T03:42:55;14.2;;;9.7;;
58306;SDS011;44116;50.884;4.768;2023-03-01T03:44:54;14.6;;;9.9;;
58306;SDS011;44116;50.884;4.768;2023-03-01T03:46:53;15.0;;;10.0;;
58306;SDS011;44116;50.884;4.768;2023-03-01T03:48:53;14.7;;;9.8;;
58306;SDS011;44116;50.884;4.768;2023-03-01T03:50:54;15.7;;;10.4;;
58306;SDS011;44116;50.884;4.768;2023-03-01T03:52:52;16.1;;;9.8;;
58306;SDS011;44116;50.884;4.768;2023-03-01T03:54:51;13.0;;;9.4;;
58306;SDS011;44116;50.884;4.768;2023-03-01T03:56:50;15.6;;;9.9;;
58306;SDS011;44116;50.884;4.768;2023-03-01T03:58:50;17.0;;;10.5;;
58306;SDS011;44116;50.884;4.768;2023-03-01T04:00:52;15.5;;;10.3;;
58306;SDS011;44116;50.884;4.768;2023-03-01T04:02:50;20.5;;;10.2;;
58306;SDS011;44116;50.884;4.768;2023-03-01T04:04:48;14.7;;;9.9;;
58306;SDS011;44116;50.884;4.768;2023-03-01T04:06:47;14.5;;;10.0;;
58306;SDS011;44116;50.884;4.768;2023-03-01T04:08:47;13.2;;;9.9;;
58306;SDS011;44116;50.884;4.768;2023-03-01T04:10:48;14.4;;;9.7;;
58306;SDS011;44116;50.884;4.768;2023-03-01T04:12:46;14.9;;;10.0;;
58306;SDS011;44116;50.884;4.768;2023-03-01T04:16:44;14.5;;;9.9;;
58306;SDS011;44116;50.884;4.768;2023-03-01T04:18:44;15.5;;;10.1;;
58306;SDS011;44116;50.884;4.768;2023-03-01T04:20:44;15.2;;;10.3;;
58306;SDS011;44116;50.884;4.768;2023-03-01T04:22:44;15.5;;;10.0;;
58306;SDS011;44116;50.884;4.768;2023-03-01T04:26:41;14.8;;;10.4;;
58306;SDS011;44116;50.884;4.768;2023-03-01T04:28:42;18.5;;;10.6;;
58306;SDS011;44116;50.884;4.768;2023-03-01T04:30:40;16.0;;;10.5;;
58306;SDS011;44116;50.884;4.768;2023-03-01T04:32:39;13.6;;;9.9;;
58306;SDS011;44116;50.884;4.768;2023-03-01T04:36:38;14.4;;;10.0;;
58306;SDS011;44116;50.884;4.768;2023-03-01T04:38:38;14.7;;;9.8;;
58306;SDS011;44116;50.884;4.768;2023-03-01T04:40:37;16.9;;;10.8;;
58306;SDS011;44116;50.884;4.768;2023-03-01T04:42:36;15.5;;;9.6;;
58306;SDS011;44116;50.884;4.768;2023-03-01T04:44:36;16.1;;;10.2;;
58306;SDS011;44116;50.884;4.768;2023-03-01T04:46:36;16.2;;;10.4;;
58306;SDS011;44116;50.884;4.768;2023-03-01T04:48:35;16.1;;;10.2;;
58306;SDS011;44116;50.884;4.768;2023-03-01T04:52:33;15.0;;;10.6;;
58306;SDS011;44116;50.884;4.768;2023-03-01T04:54:34;16.7;;;11.4;;
58306;SDS011;44116;50.884;4.768;2023-03-01T04:56:32;15.4;;;10.0;;
58306;SDS011;44116;50.884;4.768;2023-03-01T04:58:32;15.7;;;10.6;;
58306;SDS011;44116;50.884;4.768;2023-03-01T05:00:31;12.8;;;9.6;;
58306;SDS011;44116;50.884;4.768;2023-03-01T05:02:30;15.0;;;10.6;;
58306;SDS011;44116;50.884;4.768;2023-03-01T05:04:30;14.7;;;10.4;;
58306;SDS011;44116;50.884;4.768;2023-03-01T05:06:29;13.7;;;9.9;;
58306;SDS011;44116;50.884;4.768;2023-03-01T05:08:28;15.7;;;10.2;;
58306;SDS011;44116;50.884;4.768;2023-03-01T05:10:29;14.2;;;10.0;;
58306;SDS011;44116;50.884;4.768;2023-03-01T05:12:27;13.9;;;10.3;;
58306;SDS011;44116;50.884;4.768;2023-03-01T05:14:26;15.9;;;10.0;;
58306;SDS011;44116;50.884;4.768;2023-03-01T05:16:26;15.5;;;10.4;;
58306;SDS011;44116;50.884;4.768;2023-03-01T05:18:26;14.4;;;10.7;;
58306;SDS011;44116;50.884;4.768;2023-03-01T05:20:25;16.1;;;9.8;;
58306;SDS011;44116;50.884;4.768;2023-03-01T05:22:24;15.8;;;10.5;;
58306;SDS011;44116;50.884;4.768;2023-03-01T05:24:24;15.8;;;10.2;;
58306;SDS011;44116;50.884;4.768;2023-03-01T05:26:23;14.6;;;10.4;;
58306;SDS011;44116;50.884;4.768;2023-03-01T05:28:22;15.4;;;10.5;;
58306;SDS011;44116;50.884;4.768;2023-03-01T05:32:21;14.9;;;10.4;;
58306;SDS011;44116;50.884;4.768;2023-03-01T05:34:23;15.4;;;10.2;;
58306;SDS011;44116;50.884;4.768;2023-03-01T05:36:19;15.7;;;10.3;;
58306;SDS011;44116;50.884;4.768;2023-03-01T05:38:20;15.1;;;10.1;;
58306;SDS011;44116;50.884;4.768;2023-03-01T05:40:20;15.9;;;10.9;;
58306;SDS011;44116;50.884;4.768;2023-03-01T05:42:18;14.9;;;10.3;;
58306;SDS011;44116;50.884;4.768;2023-03-01T05:44:17;15.4;;;10.4;;
58306;SDS011;44116;50.884;4.768;2023-03-01T05:46:16;16.5;;;10.3;;
58306;SDS011;44116;50.884;4.768;2023-03-01T05:48:16;14.2;;;9.8;;
58306;SDS011;44116;50.884;4.768;2023-03-01T05:50:17;14.6;;;10.1;;
58306;SDS011;44116;50.884;4.768;2023-03-01T05:52:15;17.3;;;10.4;;
58306;SDS011;44116;50.884;4.768;2023-03-01T05:54:15;14.6;;;10.1;;
58306;SDS011;44116;50.884;4.768;2023-03-01T05:56:13;15.2;;;10.0;;
58306;SDS011;44116;50.884;4.768;2023-03-01T05:58:15;15.4;;;10.6;;
58306;SDS011;44116;50.884;4.768;2023-03-01T06:00:14;15.1;;;10.3;;
58306;SDS011;44116;50.884;4.768;2023-03-01T06:02:11;16.2;;;10.5;;
58306;SDS011;44116;50.884;4.768;2023-03-01T06:06:10;15.3;;;10.8;;
58306;SDS011;44116;50.884;4.768;2023-03-01T06:08:10;14.8;;;10.2;;
58306;SDS011;44116;50.884;4.768;2023-03-01T06:10:11;17.0;;;10.4;;
58306;SDS011;44116;50.884;4.768;2023-03-01T06:12:08;15.8;;;10.1;;
58306;SDS011;44116;50.884;4.768;2023-03-01T06:14:07;15.6;;;10.4;;
58306;SDS011;44116;50.884;4.768;2023-03-01T06:20:08;14.4;;;10.3;;
58306;SDS011;44116;50.884;4.768;2023-03-01T06:22:05;16.0;;;10.4;;
58306;SDS011;44116;50.884;4.768;2023-03-01T06:24:04;15.2;;;10.1;;
58306;SDS011;44116;50.884;4.768;2023-03-01T06:26:05;16.0;;;10.6;;
58306;SDS011;44116;50.884;4.768;2023-03-01T06:28:03;15.4;;;9.8;;
58306;SDS011;44116;50.884;4.768;2023-03-01T06:30:03;17.0;;;11.1;;
58306;SDS011;44116;50.884;4.768;2023-03-01T06:32:02;16.5;;;9.9;;
58306;SDS011;44116;50.884;4.768;2023-03-01T06:34:01;15.7;;;10.4;;
58306;SDS011;44116;50.884;4.768;2023-03-01T06:36:00;15.5;;;11.2;;
58306;SDS011;44116;50.884;4.768;2023-03-01T06:38:02;16.9;;;10.3;;
58306;SDS011;44116;50.884;4.768;2023-03-01T06:39:59;17.4;;;10.8;;
58306;SDS011;44116;50.884;4.768;2023-03-01T06:41:59;17.2;;;10.6;;
58306;SDS011;44116;50.884;4.768;2023-03-01T06:43:58;15.4;;;10.5;;
58306;SDS011;44116;50.884;4.768;2023-03-01T06:45:57;16.4;;;10.2;;
58306;SDS011;44116;50.884;4.768;2023-03-01T06:49:56;16.9;;;10.4;;
58306;SDS011;44116;50.884;4.768;2023-03-01T06:51:55;17.2;;;11.0;;
58306;SDS011;44116;50.884;4.768;2023-03-01T06:55:55;18.3;;;10.7;;
58306;SDS011;44116;50.884;4.768;2023-03-01T06:57:54;16.8;;;11.6;;
58306;SDS011;44116;50.884;4.768;2023-03-01T06:59:53;15.8;;;10.2;;
58306;SDS011;44116;50.884;4.768;2023-03-01T07:01:52;16.7;;;10.6;;
58306;SDS011;44116;50.884;4.768;2023-03-01T07:03:52;16.3;;;10.4;;
58306;SDS011;44116;50.884;4.768;2023-03-01T07:05:51;16.7;;;10.9;;
58306;SDS011;44116;50.884;4.768;2023-03-01T07:07:51;18.6;;;11.6;;
58306;SDS011;44116;50.884;4.768;2023-03-01T07:09:50;15.5;;;10.5;;
58306;SDS011;44116;50.884;4.768;2023-03-01T07:11:50;17.2;;;11.1;;
58306;SDS011;44116;50.884;4.768;2023-03-01T07:13:48;17.5;;;10.7;;
58306;SDS011;44116;50.884;4.768;2023-03-01T07:17:47;15.4;;;10.3;;
58306;SDS011;44116;50.884;4.768;2023-03-01T07:19:47;17.2;;;11.2;;
58306;SDS011;44116;50.884;4.768;2023-03-01T07:21:46;17.9;;;10.9;;
58306;SDS011;44116;50.884;4.768;2023-03-01T07:23:47;17.6;;;11.8;;
58306;SDS011;44116;50.884;4.768;2023-03-01T07:25:51;19.8;;;12.2;;
58306;SDS011;44116;50.884;4.768;2023-03-01T07:27:48;17.2;;;11.7;;
58306;SDS011;44116;50.884;4.768;2023-03-01T07:29:43;19.4;;;11.4;;
58306;SDS011;44116;50.884;4.768;2023-03-01T07:31:43;17.2;;;11.3;;
58306;SDS011;44116;50.884;4.768;2023-03-01T07:33:42;17.6;;;11.4;;
58306;SDS011;44116;50.884;4.768;2023-03-01T07:35:41;19.1;;;12.4;;
58306;SDS011;44116;50.884;4.768;2023-03-01T07:37:41;18.6;;;11.5;;
58306;SDS011;44116;50.884;4.768;2023-03-01T07:39:40;21.9;;;12.5;;
58306;SDS011;44116;50.884;4.768;2023-03-01T07:41:40;23.3;;;12.8;;
58306;SDS011;44116;50.884;4.768;2023-03-01T07:43:40;20.9;;;12.7;;
58306;SDS011;44116;50.884;4.768;2023-03-01T07:45:38;20.2;;;12.6;;
58306;SDS011;44116;50.884;4.768;2023-03-01T07:47:38;23.8;;;13.1;;
58306;SDS011;44116;50.884;4.768;2023-03-01T07:49:37;19.5;;;11.8;;
58306;SDS011;44116;50.884;4.768;2023-03-01T07:53:36;18.8;;;11.5;;
58306;SDS011;44116;50.884;4.768;2023-03-01T07:55:35;17.8;;;11.7;;
58306;SDS011;44116;50.884;4.768;2023-03-01T07:57:35;17.9;;;12.3;;
58306;SDS011;44116;50.884;4.768;2023-03-01T07:59:34;20.7;;;12.1;;
58306;SDS011;44116;50.884;4.768;2023-03-01T08:03:33;18.1;;;12.2;;
58306;SDS011;44116;50.884;4.768;2023-03-01T08:05:32;19.3;;;12.4;;
58306;SDS011;44116;50.884;4.768;2023-03-01T08:07:33;20.5;;;13.6;;
58306;SDS011;44116;50.884;4.768;2023-03-01T08:09:31;20.5;;;12.6;;
58306;SDS011;44116;50.884;4.768;2023-03-01T08:11:30;19.9;;;12.7;;
58306;SDS011;44116;50.884;4.768;2023-03-01T08:13:30;19.3;;;13.1;;
58306;SDS011;44116;50.884;4.768;2023-03-01T08:15:29;19.3;;;13.0;;
58306;SDS011;44116;50.884;4.768;2023-03-01T08:17:28;19.9;;;12.8;;
58306;SDS011;44116;50.884;4.768;2023-03-01T08:19:29;20.1;;;13.8;;
58306;SDS011;44116;50.884;4.768;2023-03-01T08:21:27;20.0;;;13.4;;
58306;SDS011;44116;50.884;4.768;2023-03-01T08:23:27;19.9;;;13.1;;
58306;SDS011;44116;50.884;4.768;2023-03-01T08:25:26;19.5;;;12.6;;
58306;SDS011;44116;50.884;4.768;2023-03-01T08:27:26;19.6;;;12.7;;
58306;SDS011;44116;50.884;4.768;2023-03-01T08:29:25;18.5;;;12.4;;
58306;SDS011;44116;50.884;4.768;2023-03-01T08:31:28;18.9;;;13.1;;
58306;SDS011;44116;50.884;4.768;2023-03-01T08:33:24;21.1;;;13.3;;
58306;SDS011;44116;50.884;4.768;2023-03-01T08:35:23;19.8;;;12.8;;
58306;SDS011;44116;50.884;4.768;2023-03-01T08:37:23;19.0;;;12.2;;
58306;SDS011;44116;50.884;4.768;2023-03-01T08:39:22;22.0;;;13.4;;
58306;SDS011;44116;50.884;4.768;2023-03-01T08:43:21;21.0;;;13.0;;
58306;SDS011;44116;50.884;4.768;2023-03-01T08:45:20;19.1;;;12.8;;
58306;SDS011;44116;50.884;4.768;2023-03-01T08:47:20;22.4;;;13.1;;
58306;SDS011;44116;50.884;4.768;2023-03-01T08:49:20;19.0;;;12.6;;
58306;SDS011;44116;50.884;4.768;2023-03-01T08:51:20;20.8;;;13.5;;
58306;SDS011;44116;50.884;4.768;2023-03-01T08:53:18;20.1;;;13.3;;
58306;SDS011;44116;50.884;4.768;2023-03-01T08:55:17;20.5;;;13.0;;
58306;SDS011;44116;50.884;4.768;2023-03-01T08:57:17;20.5;;;13.1;;
58306;SDS011;44116;50.884;4.768;2023-03-01T08:59:17;21.3;;;13.3;;
58306;SDS011;44116;50.884;4.768;2023-03-01T09:01:18;19.4;;;12.9;;
58306;SDS011;44116;50.884;4.768;2023-03-01T09:03:15;19.4;;;13.1;;
58306;SDS011;44116;50.884;4.768;2023-03-01T09:11:16;19.5;;;13.0;;
58306;SDS011;44116;50.884;4.768;2023-03-01T09:13:12;18.6;;;12.8;;
58306;SDS011;44116;50.884;4.768;2023-03-01T09:15:11;19.4;;;13.1;;
58306;SDS011;44116;50.884;4.768;2023-03-01T09:17:11;19.2;;;12.5;;
58306;SDS011;44116;50.884;4.768;2023-03-01T09:19:11;23.6;;;13.3;;
58306;SDS011;44116;50.884;4.768;2023-03-01T09:21:12;22.2;;;13.2;;
58306;SDS011;44116;50.884;4.768;2023-03-01T09:23:10;21.5;;;13.0;;
58306;SDS011;44116;50.884;4.768;2023-03-01T09:27:08;23.0;;;13.5;;
58306;SDS011;44116;50.884;4.768;2023-03-01T09:29:08;19.1;;;13.2;;
58306;SDS011;44116;50.884;4.768;2023-03-01T09:31:08;20.6;;;12.9;;
58306;SDS011;44116;50.884;4.768;2023-03-01T09:33:07;20.7;;;12.4;;
58306;SDS011;44116;50.884;4.768;2023-03-01T09:35:07;22.9;;;12.6;;
58306;SDS011;44116;50.884;4.768;2023-03-01T09:37:05;20.1;;;13.2;;
58306;SDS011;44116;50.884;4.768;2023-03-01T09:39:05;18.9;;;12.3;;
58306;SDS011;44116;50.884;4.768;2023-03-01T09:41:09;18.8;;;12.4;;
58306;SDS011;44116;50.884;4.768;2023-03-01T09:43:08;20.9;;;13.0;;
58306;SDS011;44116;50.884;4.768;2023-03-01T09:45:05;20.1;;;12.8;;
58306;SDS011;44116;50.884;4.768;2023-03-01T09:47:09;17.5;;;12.4;;
58306;SDS011;44116;50.884;4.768;2023-03-01T09:51:04;19.1;;;12.6;;
58306;SDS011;44116;50.884;4.768;2023-03-01T09:53:04;19.0;;;12.7;;
58306;SDS011;44116;50.884;4.768;2023-03-01T09:55:01;18.1;;;11.7;;
58306;SDS011;44116;50.884;4.768;2023-03-01T09:57:07;19.8;;;12.9;;
58306;SDS011;44116;50.884;4.768;2023-03-01T09:59:14;18.4;;;12.0;;
58306;SDS011;44116;50.884;4.768;2023-03-01T10:01:03;16.4;;;11.9;;
58306;SDS011;44116;50.884;4.768;2023-03-01T10:03:04;19.7;;;12.7;;
58306;SDS011;44116;50.884;4.768;2023-03-01T10:07:09;19.4;;;12.5;;
58306;SDS011;44116;50.884;4.768;2023-03-01T10:08:59;18.9;;;12.6;;
58306;SDS011;44116;50.884;4.768;2023-03-01T10:10:58;21.1;;;13.1;;
58306;SDS011;44116;50.884;4.768;2023-03-01T10:12:56;21.7;;;12.8;;
58306;SDS011;44116;50.884;4.768;2023-03-01T10:15:01;18.5;;;13.1;;
58306;SDS011;44116;50.884;4.768;2023-03-01T10:16:57;20.4;;;12.0;;
58306;SDS011;44116;50.884;4.768;2023-03-01T10:18:59;21.2;;;13.3;;
58306;SDS011;44116;50.884;4.768;2023-03-01T10:20:57;21.1;;;12.9;;
58306;SDS011;44116;50.884;4.768;2023-03-01T10:22:54;21.0;;;12.6;;
58306;SDS011;44116;50.884;4.768;2023-03-01T10:24:54;19.0;;;12.3;;
58306;SDS011;44116;50.884;4.768;2023-03-01T10:26:54;19.0;;;12.0;;
58306;SDS011;44116;50.884;4.768;2023-03-01T10:28:59;17.0;;;11.7;;
58306;SDS011;44116;50.884;4.768;2023-03-01T10:30:52;17.9;;;11.8;;
58306;SDS011;44116;50.884;4.768;2023-03-01T10:32:53;20.0;;;12.7;;
58306;SDS011;44116;50.884;4.768;2023-03-01T10:34:51;22.9;;;13.0;;
58306;SDS011;44116;50.884;4.768;2023-03-01T10:36:52;18.6;;;12.7;;
58306;SDS011;44116;50.884;4.768;2023-03-01T10:38:54;20.6;;;12.2;;
58306;SDS011;44116;50.884;4.768;2023-03-01T10:40:52;18.5;;;12.1;;
58306;SDS011;44116;50.884;4.768;2023-03-01T10:42:49;18.6;;;11.6;;
58306;SDS011;44116;50.884;4.768;2023-03-01T10:44:49;20.5;;;12.5;;
58306;SDS011;44116;50.884;4.768;2023-03-01T10:46:59;18.1;;;11.5;;
58306;SDS011;44116;50.884;4.768;2023-03-01T10:49:05;19.2;;;11.6;;
58306;SDS011;44116;50.884;4.768;2023-03-01T10:50:49;17.0;;;11.1;;
58306;SDS011;44116;50.884;4.768;2023-03-01T10:52:57;16.9;;;10.9;;
58306;SDS011;44116;50.884;4.768;2023-03-01T10:54:52;19.0;;;11.5;;
58306;SDS011;44116;50.884;4.768;2023-03-01T10:56:49;17.8;;;11.1;;
58306;SDS011;44116;50.884;4.768;2023-03-01T10:58:58;19.4;;;11.9;;
58306;SDS011;44116;50.884;4.768;2023-03-01T11:00:48;18.1;;;11.2;;
58306;SDS011;44116;50.884;4.768;2023-03-01T11:02:47;17.0;;;11.7;;
58306;SDS011;44116;50.884;4.768;2023-03-01T11:04:57;18.5;;;11.8;;
58306;SDS011;44116;50.884;4.768;2023-03-01T11:06:42;20.7;;;11.9;;
58306;SDS011;44116;50.884;4.768;2023-03-01T11:08:44;18.3;;;11.1;;
58306;SDS011;44116;50.884;4.768;2023-03-01T11:10:42;18.3;;;11.6;;
58306;SDS011;44116;50.884;4.768;2023-03-01T11:12:41;20.6;;;11.8;;
58306;SDS011;44116;50.884;4.768;2023-03-01T11:14:46;17.3;;;11.3;;
58306;SDS011;44116;50.884;4.768;2023-03-01T11:16:42;19.7;;;11.7;;
58306;SDS011;44116;50.884;4.768;2023-03-01T11:18:39;17.2;;;11.8;;
58306;SDS011;44116;50.884;4.768;2023-03-01T11:20:39;17.5;;;11.7;;
58306;SDS011;44116;50.884;4.768;2023-03-01T11:22:45;15.9;;;10.7;;
58306;SDS011;44116;50.884;4.768;2023-03-01T11:24:41;16.9;;;11.4;;
58306;SDS011;44116;50.884;4.768;2023-03-01T11:26:41;16.3;;;11.2;;
58306;SDS011;44116;50.884;4.768;2023-03-01T11:28:39;18.7;;;11.7;;
58306;SDS011;44116;50.884;4.768;2023-03-01T11:30:49;16.6;;;10.6;;
58306;SDS011;44116;50.884;4.768;2023-03-01T11:32:43;16.0;;;10.9;;
58306;SDS011;44116;50.884;4.768;2023-03-01T11:34:42;15.9;;;10.7;;
58306;SDS011;44116;50.884;4.768;2023-03-01T11:36:40;15.7;;;9.9;;
58306;SDS011;44116;50.884;4.768;2023-03-01T11:38:36;18.7;;;10.9;;
58306;SDS011;44116;50.884;4.768;2023-03-01T11:40:38;15.6;;;10.7;;
58306;SDS011;44116;50.884;4.768;2023-03-01T11:42:45;19.7;;;11.6;;
58306;SDS011;44116;50.884;4.768;2023-03-01T11:44:35;17.5;;;11.1;;
58306;SDS011;44116;50.884;4.768;2023-03-01T11:48:39;17.5;;;10.4;;
58306;SDS011;44116;50.884;4.768;2023-03-01T11:50:37;18.2;;;10.9;;
58306;SDS011;44116;50.884;4.768;2023-03-01T11:52:40;17.3;;;10.5;;
58306;SDS011;44116;50.884;4.768;2023-03-01T11:54:45;16.6;;;10.3;;
58306;SDS011;44116;50.884;4.768;2023-03-01T11:56:34;19.6;;;11.9;;
58306;SDS011;44116;50.884;4.768;2023-03-01T11:58:41;17.0;;;10.7;;
58306;SDS011;44116;50.884;4.768;2023-03-01T12:00:43;15.2;;;11.2;;
58306;SDS011;44116;50.884;4.768;2023-03-01T12:02:47;17.5;;;10.3;;
58306;SDS011;44116;50.884;4.768;2023-03-01T12:04:51;14.9;;;10.2;;
58306;SDS011;44116;50.884;4.768;2023-03-01T12:06:36;17.7;;;10.9;;
58306;SDS011;44116;50.884;4.768;2023-03-01T12:10:29;16.3;;;10.8;;
58306;SDS011;44116;50.884;4.768;2023-03-01T12:12:31;14.4;;;9.9;;
58306;SDS011;44116;50.884;4.768;2023-03-01T12:14:41;16.4;;;10.4;;
58306;SDS011;44116;50.884;4.768;2023-03-01T12:16:40;15.4;;;10.0;;
58306;SDS011;44116;50.884;4.768;2023-03-01T12:18:36;16.0;;;10.5;;
58306;SDS011;44116;50.884;4.768;2023-03-01T12:20:31;14.7;;;10.1;;
58306;SDS011;44116;50.884;4.768;2023-03-01T12:22:30;15.9;;;10.8;;
58306;SDS011;44116;50.884;4.768;2023-03-01T12:24:37;17.1;;;10.6;;
58306;SDS011;44116;50.884;4.768;2023-03-01T12:26:30;16.6;;;10.7;;
58306;SDS011;44116;50.884;4.768;2023-03-01T12:28:32;18.2;;;10.8;;
58306;SDS011;44116;50.884;4.768;2023-03-01T12:30:32;17.7;;;10.6;;
58306;SDS011;44116;50.884;4.768;2023-03-01T12:32:34;15.5;;;10.3;;
58306;SDS011;44116;50.884;4.768;2023-03-01T12:34:33;15.3;;;9.9;;
58306;SDS011;44116;50.884;4.768;2023-03-01T12:36:35;16.9;;;10.5;;
58306;SDS011;44116;50.884;4.768;2023-03-01T12:38:32;15.0;;;10.7;;
58306;SDS011;44116;50.884;4.768;2023-03-01T12:40:32;16.2;;;10.4;;
58306;SDS011;44116;50.884;4.768;2023-03-01T12:42:26;14.9;;;10.1;;
58306;SDS011;44116;50.884;4.768;2023-03-01T12:44:33;14.5;;;10.3;;
58306;SDS011;44116;50.884;4.768;2023-03-01T12:48:32;16.4;;;11.0;;
58306;SDS011;44116;50.884;4.768;2023-03-01T12:50:21;17.4;;;10.4;;
58306;SDS011;44116;50.884;4.768;2023-03-01T12:52:23;14.6;;;10.0;;
58306;SDS011;44116;50.884;4.768;2023-03-01T12:54:22;15.2;;;10.3;;
58306;SDS011;44116;50.884;4.768;2023-03-01T12:56:20;14.8;;;10.5;;
58306;SDS011;44116;50.884;4.768;2023-03-01T12:58:24;17.2;;;10.1;;
58306;SDS011;44116;50.884;4.768;2023-03-01T13:00:26;15.1;;;10.6;;
58306;SDS011;44116;50.884;4.768;2023-03-01T13:02:21;17.3;;;10.8;;
58306;SDS011;44116;50.884;4.768;2023-03-01T13:04:21;16.2;;;10.5;;
58306;SDS011;44116;50.884;4.768;2023-03-01T13:06:20;15.4;;;10.2;;
58306;SDS011;44116;50.884;4.768;2023-03-01T13:08:19;16.3;;;10.9;;
58306;SDS011;44116;50.884;4.768;2023-03-01T13:10:20;16.1;;;10.0;;